createdAt,value
2022-10-07T00:01:29.699Z,3.08
2022-10-07T00:03:57.844Z,2.22
2022-10-07T00:06:27.464Z,2.53
2022-10-07T00:08:55.664Z,2.10
2022-10-07T00:11:25.624Z,2.10
2022-10-07T00:13:55.867Z,2.35
2022-10-07T00:16:26.564Z,2.20
2022-10-07T00:18:58.655Z,2.53
2022-10-07T00:21:30.643Z,2.17
2022-10-07T00:24:00.324Z,2.50
2022-10-07T00:26:30.542Z,2.40
2022-10-07T00:28:58.872Z,2.80
2022-10-07T00:31:28.318Z,3.03
2022-10-07T00:33:57.343Z,2.40
2022-10-07T00:36:29.103Z,2.53
2022-10-07T00:38:58.415Z,2.67
2022-10-07T00:41:28.518Z,2.40
2022-10-07T00:43:56.610Z,2.35
2022-10-07T00:46:30.764Z,2.75
2022-10-07T00:49:02.733Z,2.35
2022-10-07T00:51:33.854Z,2.53
2022-10-07T00:54:04.373Z,2.20
2022-10-07T00:56:33.654Z,1.77
2022-10-07T00:59:02.277Z,2.15
2022-10-07T01:01:31.664Z,2.25
2022-10-07T01:03:59.615Z,2.10
2022-10-07T01:06:27.756Z,2.17
2022-10-07T01:08:57.873Z,2.20
2022-10-07T01:11:40.094Z,2.05
2022-10-07T01:14:13.350Z,2.10
2022-10-07T01:16:50.139Z,2.17
2022-10-07T01:19:44.504Z,2.10
2022-10-07T01:22:25.075Z,2.10
2022-10-07T01:25:16.935Z,1.60
2022-10-07T01:27:51.143Z,2.13
2022-10-07T01:30:19.704Z,2.65
2022-10-07T01:32:53.417Z,2.10
2022-10-07T01:35:26.156Z,2.22
2022-10-07T01:37:57.653Z,2.05
2022-10-07T01:40:28.570Z,2.17
2022-10-07T01:42:59.730Z,2.20
2022-10-07T01:45:31.375Z,2.67
2022-10-07T01:48:02.014Z,2.45
2022-10-07T01:50:31.915Z,2.17
2022-10-07T01:53:15.744Z,2.22
2022-10-07T01:55:56.756Z,2.95
2022-10-07T01:58:38.454Z,2.33
2022-10-07T02:01:15.735Z,2.60
2022-10-07T02:04:05.430Z,2.80
2022-10-07T02:06:42.675Z,2.60
2022-10-07T02:09:21.577Z,2.70
2022-10-07T02:11:56.905Z,2.20
2022-10-07T02:17:03.248Z,2.60
2022-10-07T02:19:35.164Z,3.20
2022-10-07T02:22:06.215Z,3.30
2022-10-07T02:24:36.335Z,3.38
2022-10-07T02:27:11.556Z,3.20
2022-10-07T02:29:46.114Z,3.38
2022-10-07T02:32:18.756Z,3.25
2022-10-07T02:34:53.685Z,3.22
2022-10-07T02:37:27.310Z,2.95
2022-10-07T02:39:57.276Z,3.40
2022-10-07T02:42:29.086Z,3.60
2022-10-07T02:45:06.566Z,3.10
2022-10-07T02:47:38.406Z,2.90
2022-10-07T02:50:11.205Z,3.38
2022-10-07T02:52:44.607Z,3.15
2022-10-07T02:55:17.370Z,3.22
2022-10-07T02:57:48.453Z,3.15
2022-10-07T03:00:20.456Z,3.00
2022-10-07T03:02:54.930Z,3.20
2022-10-07T03:05:27.467Z,2.78
2022-10-07T03:08:02.796Z,3.15
2022-10-07T03:10:33.247Z,3.03
2022-10-07T03:13:05.188Z,3.28
2022-10-07T03:15:42.362Z,3.70
2022-10-07T03:18:28.649Z,3.25
2022-10-07T03:21:22.936Z,3.28
2022-10-07T03:23:54.398Z,3.80
2022-10-07T03:26:26.546Z,3.35
2022-10-07T03:28:55.467Z,3.42
2022-10-07T03:31:27.899Z,3.42
2022-10-07T03:33:59.562Z,3.40
2022-10-07T03:36:28.707Z,3.45
2022-10-07T03:38:56.687Z,3.30
2022-10-07T03:41:25.736Z,2.70
2022-10-07T03:43:57.756Z,2.58
2022-10-07T03:46:28.808Z,2.80
2022-10-07T03:48:57.028Z,2.40
2022-10-07T03:51:24.939Z,2.25
2022-10-07T03:53:57.754Z,2.20
2022-10-07T03:56:29.942Z,2.20
2022-10-07T03:58:58.088Z,2.30
2022-10-07T04:01:31.712Z,2.13
2022-10-07T04:04:01.508Z,2.58
2022-10-07T04:06:33.618Z,2.28
2022-10-07T04:09:05.690Z,2.50
2022-10-07T04:11:33.738Z,2.75
2022-10-07T04:14:01.821Z,2.70
2022-10-07T04:16:37.897Z,2.65
2022-10-07T04:19:09.050Z,3.38
2022-10-07T04:21:37.139Z,2.92
2022-10-07T04:24:05.939Z,3.03
2022-10-07T04:26:34.071Z,2.85
2022-10-07T04:29:03.047Z,2.90
2022-10-07T04:31:33.384Z,3.08
2022-10-07T04:34:05.398Z,3.25
2022-10-07T04:36:36.948Z,3.13
2022-10-07T04:39:08.659Z,3.03
2022-10-07T04:41:40.498Z,3.13
2022-10-07T04:44:14.587Z,3.00
2022-10-07T04:46:56.823Z,2.95
2022-10-07T04:49:27.759Z,3.03
2022-10-07T04:51:58.217Z,3.40
2022-10-07T04:54:31.648Z,3.28
2022-10-07T04:57:00.228Z,3.10
2022-10-07T04:59:30.196Z,3.20
2022-10-07T05:02:01.488Z,3.28
2022-10-07T05:04:30.898Z,3.25
2022-10-07T05:06:59.878Z,3.90
2022-10-07T05:09:29.618Z,3.13
2022-10-07T05:11:57.854Z,3.28
2022-10-07T05:14:25.968Z,3.00
2022-10-07T05:16:55.808Z,3.00
2022-10-07T05:19:29.139Z,3.22
2022-10-07T05:21:57.438Z,3.25
2022-10-07T05:24:26.659Z,3.72
2022-10-07T05:26:55.058Z,3.30
2022-10-07T05:29:24.168Z,3.20
2022-10-07T05:31:55.132Z,2.97
2022-10-07T05:34:26.539Z,3.60
2022-10-07T05:36:57.467Z,3.33
2022-10-07T05:39:25.668Z,3.38
2022-10-07T05:41:59.059Z,3.28
2022-10-07T05:44:32.758Z,3.08
2022-10-07T05:47:03.558Z,3.15
2022-10-07T05:49:33.121Z,3.13
2022-10-07T05:52:03.568Z,3.17
2022-10-07T05:54:33.480Z,3.40
2022-10-07T05:57:03.250Z,3.63
2022-10-07T05:59:31.753Z,3.50
2022-10-07T06:02:01.135Z,3.17
2022-10-07T06:04:30.239Z,3.45
2022-10-07T06:06:58.319Z,4.20
2022-10-07T06:09:46.969Z,3.65
2022-10-07T06:12:36.722Z,3.90
2022-10-07T06:15:10.730Z,3.47
2022-10-07T06:17:45.682Z,3.45
2022-10-07T06:20:17.540Z,3.60
2022-10-07T06:22:46.798Z,3.10
2022-10-07T06:25:17.979Z,3.17
2022-10-07T06:27:51.307Z,3.00
2022-10-07T06:30:22.527Z,3.40
2022-10-07T06:32:50.641Z,3.08
2022-10-07T06:35:19.130Z,3.60
2022-10-07T06:37:49.178Z,3.08
2022-10-07T06:40:19.123Z,3.10
2022-10-07T06:42:47.720Z,2.90
2022-10-07T06:45:37.320Z,3.38
2022-10-07T06:48:05.718Z,3.45
2022-10-07T06:50:33.919Z,3.80
2022-10-07T06:53:02.699Z,3.80
2022-10-07T06:55:34.659Z,4.20
2022-10-07T06:58:06.424Z,4.40
2022-10-07T07:00:37.778Z,5.30
2022-10-07T07:03:06.287Z,5.32
2022-10-07T07:05:41.365Z,6.25
2022-10-07T07:08:16.089Z,5.63
2022-10-07T07:10:46.342Z,5.40
2022-10-07T07:13:15.549Z,4.90
2022-10-07T07:15:43.718Z,5.13
2022-10-07T07:18:12.178Z,5.10
2022-10-07T07:20:41.118Z,5.13
2022-10-07T07:23:13.099Z,5.20
2022-10-07T07:25:46.395Z,5.43
2022-10-07T07:28:16.781Z,6.05
2022-10-07T07:30:46.136Z,6.05
2022-10-07T07:33:14.508Z,5.68
2022-10-07T07:35:43.838Z,6.70
2022-10-07T07:38:12.258Z,6.55
2022-10-07T07:40:40.848Z,6.65
2022-10-07T07:43:09.748Z,7.13
2022-10-07T07:45:39.682Z,6.03
2022-10-07T07:48:09.082Z,6.38
2022-10-07T07:50:40.721Z,5.72
2022-10-07T07:53:09.917Z,7.68
2022-10-07T07:55:38.192Z,6.90
2022-10-07T07:58:11.075Z,5.93
2022-10-07T08:00:42.961Z,6.05
2022-10-07T08:03:12.171Z,6.03
2022-10-07T08:05:40.262Z,5.53
2022-10-07T08:08:11.360Z,7.00
2022-10-07T08:10:40.581Z,6.50
2022-10-07T08:13:08.860Z,6.45
2022-10-07T08:15:37.537Z,6.55
2022-10-07T08:18:08.971Z,5.85
2022-10-07T08:20:37.431Z,6.28
2022-10-07T08:23:07.280Z,7.60
2022-10-07T08:25:36.933Z,9.20
2022-10-07T08:28:07.375Z,8.23
2022-10-07T08:30:36.281Z,10.00
2022-10-07T08:33:04.841Z,8.35
2022-10-07T08:35:34.791Z,7.65
2022-10-07T08:38:03.184Z,7.07
2022-10-07T08:40:31.462Z,6.15
2022-10-07T08:43:00.512Z,7.28
2022-10-07T08:45:32.253Z,7.18
2022-10-07T08:48:03.829Z,7.50
2022-10-07T08:50:45.361Z,7.68
2022-10-07T08:53:21.381Z,6.90
2022-10-07T08:55:55.590Z,8.20
2022-10-07T08:58:41.351Z,7.03
2022-10-07T09:01:20.631Z,8.15
2022-10-07T09:03:59.200Z,7.95
2022-10-07T09:06:33.991Z,8.27
2022-10-07T09:09:06.501Z,7.82
2022-10-07T09:11:36.080Z,8.45
2022-10-07T09:14:25.203Z,7.15
2022-10-07T09:16:55.381Z,7.22
2022-10-07T09:19:30.422Z,8.38
2022-10-07T09:22:05.670Z,8.20
2022-10-07T09:24:35.640Z,9.32
2022-10-07T09:27:12.521Z,9.23
2022-10-07T09:29:40.890Z,8.50
2022-10-07T09:32:12.112Z,9.43
2022-10-07T09:34:40.421Z,8.57
2022-10-07T09:37:17.139Z,9.00
2022-10-07T09:39:46.401Z,8.77
2022-10-07T09:42:30.062Z,8.25
2022-10-07T09:45:01.951Z,8.20
2022-10-07T09:47:36.370Z,8.88
2022-10-07T09:50:05.121Z,7.93
2022-10-07T09:55:40.401Z,7.90
2022-10-07T09:58:18.444Z,8.35
2022-10-07T10:00:48.445Z,7.80
2022-10-07T10:03:18.072Z,7.63
2022-10-07T10:05:57.805Z,8.77
2022-10-07T10:08:30.962Z,7.93
2022-10-07T10:11:01.880Z,7.82
2022-10-07T10:16:27.883Z,7.25
2022-10-07T10:18:59.125Z,7.50
2022-10-07T10:21:30.927Z,7.47
2022-10-07T10:24:01.790Z,7.65
2022-10-07T10:26:56.783Z,7.43
2022-10-07T10:29:38.203Z,8.20
2022-10-07T10:32:33.121Z,7.28
2022-10-07T10:35:08.464Z,7.45
2022-10-07T10:37:58.562Z,7.80
2022-10-07T10:40:35.073Z,7.40
2022-10-07T10:45:47.110Z,7.82
2022-10-07T10:48:29.431Z,7.28
2022-10-07T10:51:07.912Z,7.18
2022-10-07T10:53:45.470Z,7.30
2022-10-07T10:56:36.000Z,7.75
2022-10-07T10:59:21.261Z,8.32
2022-10-07T11:01:54.992Z,8.55
2022-10-07T11:04:41.421Z,7.85
2022-10-07T11:07:18.101Z,7.63
2022-10-07T11:09:51.941Z,7.72
2022-10-07T11:12:27.141Z,7.78
2022-10-07T11:14:59.831Z,7.57
2022-10-07T11:17:31.132Z,7.60
2022-10-07T11:20:12.401Z,7.20
2022-10-07T11:22:45.692Z,6.90
2022-10-07T11:25:24.731Z,7.15
2022-10-07T11:27:56.221Z,6.40
2022-10-07T11:30:28.641Z,7.25
2022-10-07T11:33:02.311Z,6.07
2022-10-07T11:35:33.271Z,6.00
2022-10-07T11:38:13.322Z,6.65
2022-10-07T11:40:46.670Z,6.82
2022-10-07T11:43:21.192Z,6.72
2022-10-07T11:45:52.647Z,6.55
2022-10-07T11:48:27.567Z,6.57
2022-10-07T11:51:02.099Z,5.53
2022-10-07T11:53:34.678Z,6.53
2022-10-07T11:56:06.428Z,6.40
2022-10-07T11:58:39.359Z,6.13
2022-10-07T12:01:47.049Z,6.47
2022-10-07T12:04:35.818Z,5.95
2022-10-07T12:07:53.590Z,6.07
2022-10-07T12:10:27.525Z,5.72
2022-10-07T12:12:58.740Z,5.68
2022-10-07T12:15:43.877Z,5.65
2022-10-07T12:18:27.938Z,5.32
2022-10-07T12:21:05.047Z,6.00
2022-10-07T12:24:10.368Z,5.07
2022-10-07T12:26:46.519Z,5.85
2022-10-07T12:29:50.478Z,5.00
2022-10-07T12:32:58.047Z,5.32
2022-10-07T12:35:54.258Z,4.38
2022-10-07T12:38:26.118Z,4.93
2022-10-07T12:41:25.649Z,4.93
2022-10-07T12:44:05.687Z,5.20
2022-10-07T12:46:41.957Z,5.35
2022-10-07T12:49:22.858Z,5.63
2022-10-07T12:51:54.488Z,5.20
2022-10-07T12:54:30.367Z,4.43
2022-10-07T12:56:59.278Z,4.20
2022-10-07T12:59:49.019Z,4.40
2022-10-07T13:03:08.029Z,4.25
2022-10-07T13:06:13.873Z,3.35
2022-10-07T13:09:16.417Z,3.70
2022-10-07T13:12:23.239Z,4.03
2022-10-07T13:15:03.700Z,3.75
2022-10-07T13:17:41.316Z,3.75
2022-10-07T13:20:38.140Z,3.65
2022-10-07T13:23:15.960Z,3.95
2022-10-07T13:25:48.028Z,4.38
2022-10-07T13:28:18.918Z,4.13
2022-10-07T13:30:47.888Z,4.10
2022-10-07T13:33:25.557Z,3.83
2022-10-07T13:36:07.550Z,4.28
2022-10-07T13:38:37.527Z,3.67
2022-10-07T13:41:09.767Z,3.88
2022-10-07T13:43:39.217Z,4.00
2022-10-07T13:46:10.659Z,3.80
2022-10-07T13:48:45.393Z,4.30
2022-10-07T13:51:27.557Z,4.10
2022-10-07T13:53:59.173Z,4.03
2022-10-07T13:56:32.913Z,4.25
2022-10-07T13:59:01.921Z,4.30
2022-10-07T14:01:32.542Z,3.90
2022-10-07T14:04:18.601Z,4.35
2022-10-07T14:07:02.244Z,4.68
2022-10-07T14:09:45.522Z,4.30
2022-10-07T14:12:20.681Z,4.50
2022-10-07T14:14:52.015Z,4.82
2022-10-07T14:17:28.843Z,4.45
2022-10-07T14:19:59.689Z,4.68
2022-10-07T14:22:34.303Z,4.18
2022-10-07T14:25:07.036Z,4.13
2022-10-07T14:28:16.768Z,4.25
2022-10-07T14:31:04.267Z,3.78
2022-10-07T14:34:04.562Z,4.18
2022-10-07T14:36:33.980Z,4.18
2022-10-07T14:39:22.266Z,3.75
2022-10-07T14:41:52.072Z,4.57
2022-10-07T14:44:20.202Z,4.10
2022-10-07T14:46:48.550Z,4.43
2022-10-07T14:51:46.681Z,4.55
2022-10-07T14:54:15.111Z,4.82
2022-10-07T14:56:43.381Z,4.32
2022-10-07T14:59:15.251Z,3.90
2022-10-07T15:01:43.547Z,4.32
2022-10-07T15:04:12.384Z,4.50
2022-10-07T15:06:41.290Z,5.00
2022-10-07T15:09:13.121Z,4.60
2022-10-07T15:11:42.162Z,4.50
2022-10-07T15:14:12.999Z,4.60
2022-10-07T15:16:42.063Z,4.43
2022-10-07T15:19:10.251Z,4.53
2022-10-07T15:21:38.553Z,3.92
2022-10-07T15:24:06.861Z,3.80
2022-10-07T15:26:35.100Z,4.35
2022-10-07T15:29:03.221Z,4.15
2022-10-07T15:31:33.078Z,4.10
2022-10-07T15:34:01.353Z,4.88
2022-10-07T15:36:30.381Z,4.13
2022-10-07T15:39:02.427Z,4.93
2022-10-07T15:41:34.087Z,4.10
2022-10-07T15:44:04.715Z,3.78
2022-10-07T15:46:35.342Z,4.07
2022-10-07T15:49:04.805Z,4.18
2022-10-07T15:51:33.117Z,3.78
2022-10-07T15:54:01.346Z,4.07
2022-10-07T15:56:29.935Z,4.40
2022-10-07T15:58:59.035Z,4.10
2022-10-07T16:01:29.870Z,4.00
2022-10-07T16:04:00.844Z,4.20
2022-10-07T16:06:33.728Z,4.20
2022-10-07T16:09:02.176Z,3.72
2022-10-07T16:11:31.603Z,4.00
2022-10-07T16:14:00.344Z,3.50
2022-10-07T16:16:31.641Z,4.00
2022-10-07T16:19:02.174Z,4.20
2022-10-07T16:21:32.396Z,3.72
2022-10-07T16:24:03.235Z,4.30
2022-10-07T16:26:34.116Z,3.90
2022-10-07T16:29:22.155Z,4.20
2022-10-07T16:31:54.548Z,4.30
2022-10-07T16:34:28.565Z,4.03
2022-10-07T16:36:57.889Z,4.38
2022-10-07T16:39:26.408Z,4.20
2022-10-07T16:41:55.774Z,4.38
2022-10-07T16:44:25.057Z,4.50
2022-10-07T16:46:57.955Z,4.43
2022-10-07T16:49:29.628Z,5.28
2022-10-07T16:51:58.514Z,5.57
2022-10-07T16:54:30.134Z,5.55
2022-10-07T16:56:58.840Z,6.43
2022-10-07T16:59:26.947Z,6.85
2022-10-07T17:01:57.196Z,6.85
2022-10-07T17:04:27.124Z,6.00
2022-10-07T17:06:55.235Z,6.47
2022-10-07T17:11:59.774Z,6.60
2022-10-07T17:14:31.764Z,6.85
2022-10-07T17:17:00.970Z,6.50
2022-10-07T17:19:30.615Z,7.75
2022-10-07T17:22:01.556Z,6.63
2022-10-07T17:24:30.334Z,7.57
2022-10-07T17:26:58.435Z,5.70
2022-10-07T17:29:26.706Z,6.38
2022-10-07T17:31:55.245Z,5.80
2022-10-07T17:34:23.704Z,6.30
2022-10-07T17:36:54.437Z,5.72
2022-10-07T17:39:23.005Z,5.53
2022-10-07T17:41:50.995Z,5.28
2022-10-07T17:44:19.374Z,6.18
2022-10-07T17:46:49.228Z,5.55
2022-10-07T17:49:17.556Z,5.57
2022-10-07T17:51:45.636Z,5.45
2022-10-07T17:54:15.755Z,4.95
2022-10-07T17:56:45.968Z,5.57
2022-10-07T17:59:14.688Z,5.07
2022-10-07T18:01:43.064Z,5.03
2022-10-07T18:04:13.744Z,4.75
2022-10-07T18:06:46.285Z,4.95
2022-10-07T18:09:18.946Z,4.70
2022-10-07T18:12:07.584Z,4.75
2022-10-07T18:14:54.600Z,4.60
2022-10-07T18:19:50.997Z,4.60
2022-10-07T18:24:57.408Z,4.38
2022-10-07T18:29:56.116Z,4.53
2022-10-07T18:32:25.775Z,4.50
2022-10-07T18:34:54.103Z,4.75
2022-10-07T18:37:23.264Z,5.00
2022-10-07T18:39:51.713Z,5.30
2022-10-07T18:42:21.267Z,4.65
2022-10-07T18:44:50.844Z,5.30
2022-10-07T18:47:19.273Z,4.93
2022-10-07T18:49:47.406Z,5.00
2022-10-07T18:52:16.369Z,5.05
2022-10-07T18:54:44.623Z,5.63
2022-10-07T18:57:12.644Z,5.50
2022-10-07T18:59:42.393Z,5.30
2022-10-07T19:02:14.429Z,5.55
2022-10-07T19:04:43.443Z,5.80
2022-10-07T19:07:11.724Z,6.20
2022-10-07T19:09:39.778Z,5.65
2022-10-07T19:12:28.876Z,5.75
2022-10-07T19:14:58.722Z,5.80
2022-10-07T19:17:26.859Z,5.43
2022-10-07T19:19:55.168Z,5.38
2022-10-07T19:22:23.242Z,6.10
2022-10-07T19:25:10.204Z,5.60
2022-10-07T19:27:38.523Z,5.30
2022-10-07T19:30:09.603Z,5.60
2022-10-07T19:32:37.823Z,5.75
2022-10-07T19:35:06.644Z,5.53
2022-10-07T19:37:34.676Z,5.88
2022-10-07T19:40:03.184Z,6.15
2022-10-07T19:42:31.381Z,6.18
2022-10-07T19:44:59.694Z,5.78
2022-10-07T19:47:30.692Z,6.80
2022-10-07T19:50:02.189Z,6.22
2022-10-07T19:52:30.538Z,6.32
2022-10-07T19:54:58.628Z,6.20
2022-10-07T19:57:27.038Z,7.00
2022-10-07T19:59:55.367Z,6.40
2022-10-07T20:02:23.773Z,6.45
2022-10-07T20:04:54.319Z,6.30
2022-10-07T20:07:24.017Z,6.47
2022-10-07T20:09:53.188Z,6.95
2022-10-07T20:12:22.118Z,6.72
2022-10-07T20:14:50.358Z,6.57
2022-10-07T20:17:18.609Z,6.40
2022-10-07T20:19:47.479Z,7.47
2022-10-07T20:22:17.458Z,6.75
2022-10-07T20:24:46.148Z,6.95
2022-10-07T20:27:14.299Z,6.57
2022-10-07T20:30:03.348Z,7.15
2022-10-07T20:32:35.830Z,7.32
2022-10-07T20:35:10.894Z,7.72
2022-10-07T20:37:40.727Z,7.80
2022-10-07T20:40:28.977Z,7.10
2022-10-07T20:42:59.897Z,7.70
2022-10-07T20:45:28.187Z,7.63
2022-10-07T20:47:59.907Z,8.07
2022-10-07T20:50:28.206Z,8.05
2022-10-07T20:52:57.887Z,7.50
2022-10-07T20:55:26.453Z,9.05
2022-10-07T20:57:54.818Z,8.80
2022-10-07T21:00:23.060Z,8.70
2022-10-07T21:02:51.936Z,8.30
2022-10-07T21:05:20.229Z,8.35
2022-10-07T21:07:52.465Z,8.68
2022-10-07T21:10:24.342Z,9.70
2022-10-07T21:12:52.499Z,9.07
2022-10-07T21:15:22.128Z,9.32
2022-10-07T21:17:50.748Z,8.77
2022-10-07T21:20:18.881Z,8.95
2022-10-07T21:22:49.000Z,7.95
2022-10-07T21:25:18.527Z,7.90
2022-10-07T21:27:48.858Z,8.20
2022-10-07T21:30:17.328Z,7.93
2022-10-07T21:32:45.825Z,7.93
2022-10-07T21:35:14.308Z,8.10
2022-10-07T21:37:42.737Z,7.13
2022-10-07T21:40:11.389Z,7.18
2022-10-07T21:42:39.570Z,7.03
2022-10-07T21:45:10.447Z,6.57
2022-10-07T21:47:38.809Z,7.30
2022-10-07T21:50:08.759Z,6.47
2022-10-07T21:52:37.227Z,6.55
2022-10-07T21:55:06.015Z,6.28
2022-10-07T21:57:34.267Z,6.43
2022-10-07T22:00:03.996Z,6.45
2022-10-07T22:02:42.246Z,7.18
2022-10-07T22:05:11.917Z,6.63
2022-10-07T22:07:58.485Z,7.15
2022-10-07T22:10:26.818Z,7.07
2022-10-07T22:12:54.875Z,6.35
2022-10-07T22:15:24.114Z,6.45
2022-10-07T22:17:53.856Z,5.82
2022-10-07T22:20:22.516Z,6.13
2022-10-07T22:22:50.825Z,6.85
2022-10-07T22:25:18.936Z,6.72
2022-10-07T22:27:48.636Z,7.40
2022-10-07T22:30:17.005Z,8.70
2022-10-07T22:32:45.285Z,7.85
2022-10-07T22:35:27.896Z,8.85
2022-10-07T22:37:56.337Z,9.07
2022-10-07T22:40:24.545Z,9.10
2022-10-07T22:42:53.266Z,9.38
2022-10-07T22:45:21.437Z,9.50
2022-10-07T22:47:50.795Z,8.77
2022-10-07T22:50:20.416Z,8.77
2022-10-07T22:52:49.317Z,8.07
2022-10-07T22:55:18.366Z,8.40
2022-10-07T22:57:46.626Z,9.18
2022-10-07T23:00:15.866Z,8.40
2022-10-07T23:02:44.994Z,7.43
2022-10-07T23:05:13.676Z,6.40
2022-10-07T23:07:43.360Z,5.93
2022-10-07T23:10:11.531Z,6.10
2022-10-07T23:12:39.735Z,5.85
2022-10-07T23:15:08.586Z,5.72
2022-10-07T23:17:36.608Z,5.30
2022-10-07T23:20:05.544Z,6.25
2022-10-07T23:22:35.017Z,6.22
2022-10-07T23:25:05.165Z,7.20
2022-10-07T23:27:33.576Z,7.03
2022-10-07T23:30:02.350Z,6.70
2022-10-07T23:32:31.716Z,6.50
2022-10-07T23:35:00.206Z,7.20
2022-10-07T23:37:28.277Z,6.68
2022-10-07T23:39:56.256Z,6.97
2022-10-07T23:42:25.965Z,6.80
2022-10-07T23:44:54.056Z,6.60
2022-10-07T23:47:23.302Z,7.20
2022-10-07T23:49:51.638Z,7.43
2022-10-07T23:52:20.099Z,7.47
2022-10-07T23:54:48.574Z,7.70
2022-10-07T23:57:17.369Z,7.88
2022-10-07T23:59:47.392Z,8.25
